sensor_id;sensor_type;location;lat;lon;timestamp;temperature;humidity
25440;DHT22;13365;52.208;5.488;2023-07-16T00:02:21;21.80;79.50
25440;DHT22;13365;52.208;5.488;2023-07-16T00:04:47;21.60;79.90
25440;DHT22;13365;52.208;5.488;2023-07-16T00:07:12;21.70;80.30
25440;DHT22;13365;52.208;5.488;2023-07-16T00:09:38;21.70;79.80
25440;DHT22;13365;52.208;5.488;2023-07-16T00:12:04;21.70;78.90
25440;DHT22;13365;52.208;5.488;2023-07-16T00:14:30;21.60;79.30
25440;DHT22;13365;52.208;5.488;2023-07-16T00:16:55;21.60;79.30
25440;DHT22;13365;52.208;5.488;2023-07-16T00:19:21;21.50;79.30
25440;DHT22;13365;52.208;5.488;2023-07-16T00:21:46;21.50;79.40
25440;DHT22;13365;52.208;5.488;2023-07-16T00:24:12;21.60;79.10
25440;DHT22;13365;52.208;5.488;2023-07-16T00:26:37;21.60;78.50
25440;DHT22;13365;52.208;5.488;2023-07-16T00:29:03;21.40;78.20
25440;DHT22;13365;52.208;5.488;2023-07-16T00:31:28;21.40;78.80
25440;DHT22;13365;52.208;5.488;2023-07-16T00:33:54;21.50;78.80
25440;DHT22;13365;52.208;5.488;2023-07-16T00:36:19;21.50;78.60
25440;DHT22;13365;52.208;5.488;2023-07-16T00:38:45;21.40;78.40
25440;DHT22;13365;52.208;5.488;2023-07-16T00:41:12;21.40;78.50
25440;DHT22;13365;52.208;5.488;2023-07-16T00:43:38;21.50;78.50
25440;DHT22;13365;52.208;5.488;2023-07-16T00:46:03;21.60;77.90
25440;DHT22;13365;52.208;5.488;2023-07-16T00:48:29;21.60;78.30
25440;DHT22;13365;52.208;5.488;2023-07-16T00:50:55;21.60;77.60
25440;DHT22;13365;52.208;5.488;2023-07-16T00:53:22;21.60;77.90
25440;DHT22;13365;52.208;5.488;2023-07-16T00:55:47;21.50;77.90
25440;DHT22;13365;52.208;5.488;2023-07-16T00:58:13;21.60;77.70
25440;DHT22;13365;52.208;5.488;2023-07-16T01:00:40;21.70;77.40
25440;DHT22;13365;52.208;5.488;2023-07-16T01:03:11;21.80;77.20
25440;DHT22;13365;52.208;5.488;2023-07-16T01:08:34;21.80;76.90
25440;DHT22;13365;52.208;5.488;2023-07-16T01:11:01;21.60;77.20
25440;DHT22;13365;52.208;5.488;2023-07-16T01:13:27;21.50;78.00
25440;DHT22;13365;52.208;5.488;2023-07-16T01:15:54;21.40;78.60
25440;DHT22;13365;52.208;5.488;2023-07-16T01:18:19;21.30;78.90
25440;DHT22;13365;52.208;5.488;2023-07-16T01:20:45;21.20;78.90
25440;DHT22;13365;52.208;5.488;2023-07-16T01:31:36;21.40;79.30
25440;DHT22;13365;52.208;5.488;2023-07-16T01:34:05;21.50;78.90
25440;DHT22;13365;52.208;5.488;2023-07-16T01:36:31;21.40;79.60
25440;DHT22;13365;52.208;5.488;2023-07-16T01:38:58;21.20;79.30
25440;DHT22;13365;52.208;5.488;2023-07-16T01:41:24;21.10;79.80
25440;DHT22;13365;52.208;5.488;2023-07-16T01:43:50;21.10;80.40
25440;DHT22;13365;52.208;5.488;2023-07-16T01:46:18;21.10;80.10
25440;DHT22;13365;52.208;5.488;2023-07-16T01:48:44;21.20;79.60
25440;DHT22;13365;52.208;5.488;2023-07-16T01:51:10;21.30;79.50
25440;DHT22;13365;52.208;5.488;2023-07-16T01:53:39;21.20;79.60
25440;DHT22;13365;52.208;5.488;2023-07-16T01:56:05;21.20;79.70
25440;DHT22;13365;52.208;5.488;2023-07-16T01:58:30;21.30;80.40
25440;DHT22;13365;52.208;5.488;2023-07-16T02:00:56;21.20;80.10
25440;DHT22;13365;52.208;5.488;2023-07-16T02:03:21;21.20;80.20
25440;DHT22;13365;52.208;5.488;2023-07-16T02:05:47;21.10;80.20
25440;DHT22;13365;52.208;5.488;2023-07-16T02:08:13;21.10;80.50
25440;DHT22;13365;52.208;5.488;2023-07-16T02:10:38;21.10;80.40
25440;DHT22;13365;52.208;5.488;2023-07-16T02:13:04;21.10;80.60
25440;DHT22;13365;52.208;5.488;2023-07-16T02:15:29;21.10;80.50
25440;DHT22;13365;52.208;5.488;2023-07-16T02:17:55;21.00;81.00
25440;DHT22;13365;52.208;5.488;2023-07-16T02:20:21;21.00;80.90
25440;DHT22;13365;52.208;5.488;2023-07-16T02:22:46;21.00;81.60
25440;DHT22;13365;52.208;5.488;2023-07-16T02:25:12;21.20;81.60
25440;DHT22;13365;52.208;5.488;2023-07-16T02:27:37;21.20;80.90
25440;DHT22;13365;52.208;5.488;2023-07-16T02:30:03;21.10;81.50
25440;DHT22;13365;52.208;5.488;2023-07-16T02:32:29;21.10;81.50
25440;DHT22;13365;52.208;5.488;2023-07-16T02:34:54;20.90;81.70
25440;DHT22;13365;52.208;5.488;2023-07-16T02:37:21;20.90;82.20
25440;DHT22;13365;52.208;5.488;2023-07-16T02:39:46;20.90;82.40
25440;DHT22;13365;52.208;5.488;2023-07-16T02:42:13;20.90;82.40
25440;DHT22;13365;52.208;5.488;2023-07-16T02:44:38;20.90;82.60
25440;DHT22;13365;52.208;5.488;2023-07-16T02:47:08;21.20;82.40
25440;DHT22;13365;52.208;5.488;2023-07-16T02:49:34;21.20;82.00
25440;DHT22;13365;52.208;5.488;2023-07-16T02:51:59;21.30;81.80
25440;DHT22;13365;52.208;5.488;2023-07-16T02:54:25;21.40;81.60
25440;DHT22;13365;52.208;5.488;2023-07-16T02:56:50;21.40;81.80
25440;DHT22;13365;52.208;5.488;2023-07-16T02:59:16;21.40;81.40
25440;DHT22;13365;52.208;5.488;2023-07-16T03:01:41;21.30;82.20
25440;DHT22;13365;52.208;5.488;2023-07-16T03:04:07;21.30;81.90
25440;DHT22;13365;52.208;5.488;2023-07-16T03:06:32;21.30;82.20
25440;DHT22;13365;52.208;5.488;2023-07-16T03:08:58;21.20;82.70
25440;DHT22;13365;52.208;5.488;2023-07-16T03:11:23;21.20;82.60
25440;DHT22;13365;52.208;5.488;2023-07-16T03:13:49;21.20;82.70
25440;DHT22;13365;52.208;5.488;2023-07-16T03:16:14;21.20;82.10
25440;DHT22;13365;52.208;5.488;2023-07-16T03:18:40;21.20;82.10
25440;DHT22;13365;52.208;5.488;2023-07-16T03:21:06;21.20;82.40
25440;DHT22;13365;52.208;5.488;2023-07-16T03:23:31;21.30;82.40
25440;DHT22;13365;52.208;5.488;2023-07-16T03:25:57;21.30;82.20
25440;DHT22;13365;52.208;5.488;2023-07-16T03:28:22;21.50;81.80
25440;DHT22;13365;52.208;5.488;2023-07-16T03:30:49;21.50;81.30
25440;DHT22;13365;52.208;5.488;2023-07-16T03:33:15;21.40;81.40
25440;DHT22;13365;52.208;5.488;2023-07-16T03:35:44;21.40;81.70
25440;DHT22;13365;52.208;5.488;2023-07-16T03:38:10;21.30;82.00
25440;DHT22;13365;52.208;5.488;2023-07-16T03:40:36;21.30;82.20
25440;DHT22;13365;52.208;5.488;2023-07-16T03:43:02;21.20;82.30
25440;DHT22;13365;52.208;5.488;2023-07-16T03:45:27;21.20;82.70
25440;DHT22;13365;52.208;5.488;2023-07-16T03:47:53;21.10;82.70
25440;DHT22;13365;52.208;5.488;2023-07-16T03:50:18;21.10;82.70
25440;DHT22;13365;52.208;5.488;2023-07-16T03:52:44;21.10;82.60
25440;DHT22;13365;52.208;5.488;2023-07-16T03:55:10;21.10;82.90
25440;DHT22;13365;52.208;5.488;2023-07-16T03:57:36;21.10;83.00
25440;DHT22;13365;52.208;5.488;2023-07-16T04:00:03;21.20;82.90
25440;DHT22;13365;52.208;5.488;2023-07-16T04:02:31;21.00;83.20
25440;DHT22;13365;52.208;5.488;2023-07-16T04:04:56;20.90;83.30
25440;DHT22;13365;52.208;5.488;2023-07-16T04:07:22;20.70;84.00
25440;DHT22;13365;52.208;5.488;2023-07-16T04:09:47;20.60;84.80
25440;DHT22;13365;52.208;5.488;2023-07-16T04:12:13;20.60;85.20
25440;DHT22;13365;52.208;5.488;2023-07-16T04:14:38;20.60;85.00
25440;DHT22;13365;52.208;5.488;2023-07-16T04:17:04;20.60;85.30
25440;DHT22;13365;52.208;5.488;2023-07-16T04:19:30;20.50;85.00
25440;DHT22;13365;52.208;5.488;2023-07-16T04:21:55;20.60;85.70
25440;DHT22;13365;52.208;5.488;2023-07-16T04:24:20;20.60;84.90
25440;DHT22;13365;52.208;5.488;2023-07-16T04:26:46;20.40;85.50
25440;DHT22;13365;52.208;5.488;2023-07-16T04:29:12;20.40;86.40
25440;DHT22;13365;52.208;5.488;2023-07-16T04:31:37;20.50;85.80
25440;DHT22;13365;52.208;5.488;2023-07-16T04:34:03;20.60;86.20
25440;DHT22;13365;52.208;5.488;2023-07-16T04:36:28;20.70;86.00
25440;DHT22;13365;52.208;5.488;2023-07-16T04:38:53;20.70;86.10
25440;DHT22;13365;52.208;5.488;2023-07-16T04:41:19;20.80;85.50
25440;DHT22;13365;52.208;5.488;2023-07-16T04:43:44;20.60;85.70
25440;DHT22;13365;52.208;5.488;2023-07-16T04:46:10;20.60;85.90
25440;DHT22;13365;52.208;5.488;2023-07-16T04:48:37;20.70;85.30
25440;DHT22;13365;52.208;5.488;2023-07-16T04:51:02;20.70;85.40
25440;DHT22;13365;52.208;5.488;2023-07-16T04:53:28;20.70;85.50
25440;DHT22;13365;52.208;5.488;2023-07-16T04:55:53;20.70;85.30
25440;DHT22;13365;52.208;5.488;2023-07-16T04:58:19;20.80;85.40
25440;DHT22;13365;52.208;5.488;2023-07-16T05:00:44;20.80;85.10
25440;DHT22;13365;52.208;5.488;2023-07-16T05:03:11;21.10;85.30
25440;DHT22;13365;52.208;5.488;2023-07-16T05:05:36;21.00;84.70
25440;DHT22;13365;52.208;5.488;2023-07-16T05:08:02;21.10;84.20
25440;DHT22;13365;52.208;5.488;2023-07-16T05:10:28;21.30;83.80
25440;DHT22;13365;52.208;5.488;2023-07-16T05:12:53;21.00;83.30
25440;DHT22;13365;52.208;5.488;2023-07-16T05:15:19;21.00;83.30
25440;DHT22;13365;52.208;5.488;2023-07-16T05:17:44;20.90;84.20
25440;DHT22;13365;52.208;5.488;2023-07-16T05:20:10;20.90;84.30
25440;DHT22;13365;52.208;5.488;2023-07-16T05:22:36;20.90;84.00
25440;DHT22;13365;52.208;5.488;2023-07-16T05:25:02;21.00;84.20
25440;DHT22;13365;52.208;5.488;2023-07-16T05:27:28;21.00;83.30
25440;DHT22;13365;52.208;5.488;2023-07-16T05:29:53;20.90;83.80
25440;DHT22;13365;52.208;5.488;2023-07-16T05:32:19;21.00;84.00
25440;DHT22;13365;52.208;5.488;2023-07-16T05:34:45;21.00;83.90
25440;DHT22;13365;52.208;5.488;2023-07-16T05:37:11;21.10;83.10
25440;DHT22;13365;52.208;5.488;2023-07-16T05:39:37;21.30;82.80
25440;DHT22;13365;52.208;5.488;2023-07-16T05:42:03;21.20;83.10
25440;DHT22;13365;52.208;5.488;2023-07-16T05:44:29;21.30;83.80
25440;DHT22;13365;52.208;5.488;2023-07-16T05:46:54;21.40;83.50
25440;DHT22;13365;52.208;5.488;2023-07-16T05:49:20;21.50;83.40
25440;DHT22;13365;52.208;5.488;2023-07-16T05:51:45;21.50;82.30
25440;DHT22;13365;52.208;5.488;2023-07-16T05:54:11;21.40;82.20
25440;DHT22;13365;52.208;5.488;2023-07-16T05:56:36;21.40;83.30
25440;DHT22;13365;52.208;5.488;2023-07-16T05:59:02;21.50;82.60
25440;DHT22;13365;52.208;5.488;2023-07-16T06:01:27;21.50;81.30
25440;DHT22;13365;52.208;5.488;2023-07-16T06:03:53;21.50;82.30
25440;DHT22;13365;52.208;5.488;2023-07-16T06:06:19;21.60;81.60
25440;DHT22;13365;52.208;5.488;2023-07-16T06:08:45;21.70;82.50
25440;DHT22;13365;52.208;5.488;2023-07-16T06:11:11;21.80;81.60
25440;DHT22;13365;52.208;5.488;2023-07-16T06:13:37;21.90;81.70
25440;DHT22;13365;52.208;5.488;2023-07-16T06:16:02;22.00;81.70
25440;DHT22;13365;52.208;5.488;2023-07-16T06:18:28;22.20;82.60
25440;DHT22;13365;52.208;5.488;2023-07-16T06:20:53;22.30;81.90
25440;DHT22;13365;52.208;5.488;2023-07-16T06:23:20;22.20;80.40
25440;DHT22;13365;52.208;5.488;2023-07-16T06:25:46;21.90;81.70
25440;DHT22;13365;52.208;5.488;2023-07-16T06:28:15;21.90;81.90
25440;DHT22;13365;52.208;5.488;2023-07-16T06:30:41;21.90;82.60
25440;DHT22;13365;52.208;5.488;2023-07-16T06:33:06;21.90;81.50
25440;DHT22;13365;52.208;5.488;2023-07-16T06:35:34;21.80;82.00
25440;DHT22;13365;52.208;5.488;2023-07-16T06:38:00;21.90;82.60
25440;DHT22;13365;52.208;5.488;2023-07-16T06:40:26;22.10;82.00
25440;DHT22;13365;52.208;5.488;2023-07-16T06:42:53;22.20;81.50
25440;DHT22;13365;52.208;5.488;2023-07-16T06:45:20;22.50;83.00
25440;DHT22;13365;52.208;5.488;2023-07-16T06:47:45;22.40;81.20
25440;DHT22;13365;52.208;5.488;2023-07-16T06:50:11;22.30;81.50
25440;DHT22;13365;52.208;5.488;2023-07-16T06:52:36;22.10;82.10
25440;DHT22;13365;52.208;5.488;2023-07-16T06:55:02;22.30;82.30
25440;DHT22;13365;52.208;5.488;2023-07-16T06:57:28;22.40;81.40
25440;DHT22;13365;52.208;5.488;2023-07-16T06:59:53;22.40;81.20
25440;DHT22;13365;52.208;5.488;2023-07-16T07:02:19;22.40;82.00
25440;DHT22;13365;52.208;5.488;2023-07-16T07:04:45;22.40;81.20
25440;DHT22;13365;52.208;5.488;2023-07-16T07:07:11;22.40;81.80
25440;DHT22;13365;52.208;5.488;2023-07-16T07:09:36;22.40;80.70
25440;DHT22;13365;52.208;5.488;2023-07-16T07:12:02;22.30;81.90
25440;DHT22;13365;52.208;5.488;2023-07-16T07:14:28;22.50;82.30
25440;DHT22;13365;52.208;5.488;2023-07-16T07:16:53;22.70;81.80
25440;DHT22;13365;52.208;5.488;2023-07-16T07:19:19;22.80;80.50
25440;DHT22;13365;52.208;5.488;2023-07-16T07:21:55;22.80;81.30
25440;DHT22;13365;52.208;5.488;2023-07-16T07:24:20;23.20;80.20
25440;DHT22;13365;52.208;5.488;2023-07-16T07:26:47;23.40;78.40
25440;DHT22;13365;52.208;5.488;2023-07-16T07:29:12;23.50;78.60
25440;DHT22;13365;52.208;5.488;2023-07-16T07:31:38;23.50;78.80
25440;DHT22;13365;52.208;5.488;2023-07-16T07:34:04;23.40;79.80
25440;DHT22;13365;52.208;5.488;2023-07-16T07:36:29;23.30;79.90
25440;DHT22;13365;52.208;5.488;2023-07-16T07:38:55;23.40;80.10
25440;DHT22;13365;52.208;5.488;2023-07-16T07:41:20;23.70;79.30
25440;DHT22;13365;52.208;5.488;2023-07-16T07:43:46;24.10;79.20
25440;DHT22;13365;52.208;5.488;2023-07-16T07:46:11;24.10;79.00
25440;DHT22;13365;52.208;5.488;2023-07-16T07:48:37;24.30;78.70
25440;DHT22;13365;52.208;5.488;2023-07-16T07:51:02;24.20;78.30
25440;DHT22;13365;52.208;5.488;2023-07-16T07:53:28;24.00;78.60
25440;DHT22;13365;52.208;5.488;2023-07-16T07:55:54;24.10;78.10
25440;DHT22;13365;52.208;5.488;2023-07-16T07:58:20;24.10;78.50
25440;DHT22;13365;52.208;5.488;2023-07-16T08:00:46;24.20;78.30
25440;DHT22;13365;52.208;5.488;2023-07-16T08:03:11;24.00;78.30
25440;DHT22;13365;52.208;5.488;2023-07-16T08:05:37;23.90;78.10
25440;DHT22;13365;52.208;5.488;2023-07-16T08:08:02;23.60;77.90
25440;DHT22;13365;52.208;5.488;2023-07-16T08:10:29;23.50;78.30
25440;DHT22;13365;52.208;5.488;2023-07-16T08:12:56;23.40;80.40
25440;DHT22;13365;52.208;5.488;2023-07-16T08:15:21;23.30;80.70
25440;DHT22;13365;52.208;5.488;2023-07-16T08:17:47;23.40;79.60
25440;DHT22;13365;52.208;5.488;2023-07-16T08:20:13;23.70;81.30
25440;DHT22;13365;52.208;5.488;2023-07-16T08:22:39;24.10;77.80
25440;DHT22;13365;52.208;5.488;2023-07-16T08:25:06;24.40;78.80
25440;DHT22;13365;52.208;5.488;2023-07-16T08:27:31;24.50;76.90
25440;DHT22;13365;52.208;5.488;2023-07-16T08:29:57;24.60;76.80
25440;DHT22;13365;52.208;5.488;2023-07-16T08:32:23;24.70;76.90
25440;DHT22;13365;52.208;5.488;2023-07-16T08:34:49;24.50;76.80
25440;DHT22;13365;52.208;5.488;2023-07-16T08:37:15;24.20;76.80
25440;DHT22;13365;52.208;5.488;2023-07-16T08:39:40;24.20;78.90
25440;DHT22;13365;52.208;5.488;2023-07-16T08:42:09;24.30;79.70
25440;DHT22;13365;52.208;5.488;2023-07-16T08:44:35;24.50;77.80
25440;DHT22;13365;52.208;5.488;2023-07-16T08:47:01;24.50;75.80
25440;DHT22;13365;52.208;5.488;2023-07-16T08:49:29;24.50;77.50
25440;DHT22;13365;52.208;5.488;2023-07-16T08:51:55;24.60;78.00
25440;DHT22;13365;52.208;5.488;2023-07-16T08:54:22;24.50;77.30
25440;DHT22;13365;52.208;5.488;2023-07-16T08:56:48;24.30;77.10
25440;DHT22;13365;52.208;5.488;2023-07-16T08:59:15;24.20;78.20
25440;DHT22;13365;52.208;5.488;2023-07-16T09:01:40;23.90;77.90
25440;DHT22;13365;52.208;5.488;2023-07-16T09:04:06;23.80;78.40
25440;DHT22;13365;52.208;5.488;2023-07-16T09:06:34;23.80;80.80
25440;DHT22;13365;52.208;5.488;2023-07-16T09:09:00;23.90;80.90
25440;DHT22;13365;52.208;5.488;2023-07-16T09:11:25;24.20;79.20
25440;DHT22;13365;52.208;5.488;2023-07-16T09:13:52;24.60;79.40
25440;DHT22;13365;52.208;5.488;2023-07-16T09:16:18;24.70;78.90
25440;DHT22;13365;52.208;5.488;2023-07-16T09:18:44;24.90;77.60
25440;DHT22;13365;52.208;5.488;2023-07-16T09:21:10;25.00;77.40
25440;DHT22;13365;52.208;5.488;2023-07-16T09:23:36;25.00;77.20
25440;DHT22;13365;52.208;5.488;2023-07-16T09:26:03;25.10;76.90
25440;DHT22;13365;52.208;5.488;2023-07-16T09:28:31;24.80;75.60
25440;DHT22;13365;52.208;5.488;2023-07-16T09:31:03;24.70;76.20
25440;DHT22;13365;52.208;5.488;2023-07-16T09:33:31;24.60;76.20
25440;DHT22;13365;52.208;5.488;2023-07-16T09:35:57;24.70;76.70
25440;DHT22;13365;52.208;5.488;2023-07-16T09:38:23;24.80;78.10
25440;DHT22;13365;52.208;5.488;2023-07-16T09:40:52;25.00;76.40
25440;DHT22;13365;52.208;5.488;2023-07-16T09:43:18;25.10;77.60
25440;DHT22;13365;52.208;5.488;2023-07-16T09:45:43;25.20;77.10
25440;DHT22;13365;52.208;5.488;2023-07-16T09:48:09;25.10;75.10
25440;DHT22;13365;52.208;5.488;2023-07-16T09:50:35;24.60;76.70
25440;DHT22;13365;52.208;5.488;2023-07-16T09:53:05;24.60;76.50
25440;DHT22;13365;52.208;5.488;2023-07-16T09:55:33;24.70;77.00
25440;DHT22;13365;52.208;5.488;2023-07-16T09:58:01;24.70;76.20
25440;DHT22;13365;52.208;5.488;2023-07-16T10:00:27;24.60;76.40
25440;DHT22;13365;52.208;5.488;2023-07-16T10:02:54;24.50;76.00
25440;DHT22;13365;52.208;5.488;2023-07-16T10:05:24;24.70;78.80
25440;DHT22;13365;52.208;5.488;2023-07-16T10:07:54;24.80;78.60
25440;DHT22;13365;52.208;5.488;2023-07-16T10:10:21;24.70;76.50
25440;DHT22;13365;52.208;5.488;2023-07-16T10:13:02;24.50;78.80
25440;DHT22;13365;52.208;5.488;2023-07-16T10:15:29;24.50;78.30
25440;DHT22;13365;52.208;5.488;2023-07-16T10:17:56;24.50;78.40
25440;DHT22;13365;52.208;5.488;2023-07-16T10:20:49;24.50;78.30
25440;DHT22;13365;52.208;5.488;2023-07-16T10:23:17;24.60;78.10
25440;DHT22;13365;52.208;5.488;2023-07-16T10:26:00;24.90;79.00
25440;DHT22;13365;52.208;5.488;2023-07-16T10:28:26;25.30;77.80
25440;DHT22;13365;52.208;5.488;2023-07-16T10:30:51;25.40;76.60
25440;DHT22;13365;52.208;5.488;2023-07-16T10:33:17;25.70;77.40
25440;DHT22;13365;52.208;5.488;2023-07-16T10:35:45;25.70;75.10
25440;DHT22;13365;52.208;5.488;2023-07-16T10:38:11;25.60;74.20
25440;DHT22;13365;52.208;5.488;2023-07-16T10:40:44;25.30;74.50
25440;DHT22;13365;52.208;5.488;2023-07-16T10:43:10;25.10;75.90
25440;DHT22;13365;52.208;5.488;2023-07-16T10:45:36;24.90;74.40
25440;DHT22;13365;52.208;5.488;2023-07-16T10:48:03;24.90;75.90
25440;DHT22;13365;52.208;5.488;2023-07-16T10:50:32;24.90;77.80
25440;DHT22;13365;52.208;5.488;2023-07-16T10:52:57;24.90;77.80
25440;DHT22;13365;52.208;5.488;2023-07-16T10:55:25;24.90;77.50
25440;DHT22;13365;52.208;5.488;2023-07-16T10:57:51;24.90;79.10
25440;DHT22;13365;52.208;5.488;2023-07-16T11:00:18;25.10;79.50
25440;DHT22;13365;52.208;5.488;2023-07-16T11:02:44;25.40;78.40
25440;DHT22;13365;52.208;5.488;2023-07-16T11:05:14;25.30;76.70
25440;DHT22;13365;52.208;5.488;2023-07-16T11:07:43;25.20;75.70
25440;DHT22;13365;52.208;5.488;2023-07-16T11:10:10;25.30;77.90
25440;DHT22;13365;52.208;5.488;2023-07-16T11:12:35;25.30;76.50
25440;DHT22;13365;52.208;5.488;2023-07-16T11:15:01;25.00;77.20
25440;DHT22;13365;52.208;5.488;2023-07-16T11:17:27;24.80;78.20
25440;DHT22;13365;52.208;5.488;2023-07-16T11:19:54;24.70;80.30
25440;DHT22;13365;52.208;5.488;2023-07-16T11:22:27;24.70;78.80
25440;DHT22;13365;52.208;5.488;2023-07-16T11:24:53;24.80;77.90
25440;DHT22;13365;52.208;5.488;2023-07-16T11:27:24;25.00;77.40
25440;DHT22;13365;52.208;5.488;2023-07-16T11:29:55;25.30;77.60
25440;DHT22;13365;52.208;5.488;2023-07-16T11:35:04;25.40;76.50
25440;DHT22;13365;52.208;5.488;2023-07-16T11:37:32;25.50;78.90
25440;DHT22;13365;52.208;5.488;2023-07-16T11:39:59;25.40;76.50
25440;DHT22;13365;52.208;5.488;2023-07-16T11:42:38;25.40;78.80
25440;DHT22;13365;52.208;5.488;2023-07-16T11:45:05;25.50;77.60
25440;DHT22;13365;52.208;5.488;2023-07-16T11:47:39;25.40;78.10
25440;DHT22;13365;52.208;5.488;2023-07-16T11:50:05;25.30;77.30
25440;DHT22;13365;52.208;5.488;2023-07-16T11:52:31;25.30;77.20
25440;DHT22;13365;52.208;5.488;2023-07-16T11:54:58;25.40;75.40
25440;DHT22;13365;52.208;5.488;2023-07-16T11:57:25;25.30;74.60
25440;DHT22;13365;52.208;5.488;2023-07-16T11:59:50;25.40;75.30
25440;DHT22;13365;52.208;5.488;2023-07-16T12:02:16;25.30;75.30
25440;DHT22;13365;52.208;5.488;2023-07-16T12:04:41;25.10;77.30
25440;DHT22;13365;52.208;5.488;2023-07-16T12:07:07;25.30;75.30
25440;DHT22;13365;52.208;5.488;2023-07-16T12:09:33;25.50;75.10
25440;DHT22;13365;52.208;5.488;2023-07-16T12:12:00;25.80;74.80
25440;DHT22;13365;52.208;5.488;2023-07-16T12:14:26;25.90;74.80
25440;DHT22;13365;52.208;5.488;2023-07-16T12:16:51;25.70;73.40
25440;DHT22;13365;52.208;5.488;2023-07-16T12:19:17;25.50;75.70
25440;DHT22;13365;52.208;5.488;2023-07-16T12:21:43;25.70;73.80
25440;DHT22;13365;52.208;5.488;2023-07-16T12:24:08;25.70;74.40
25440;DHT22;13365;52.208;5.488;2023-07-16T12:26:35;25.80;72.60
25440;DHT22;13365;52.208;5.488;2023-07-16T12:29:01;25.90;70.30
25440;DHT22;13365;52.208;5.488;2023-07-16T12:31:30;26.30;72.00
25440;DHT22;13365;52.208;5.488;2023-07-16T12:33:56;26.60;74.40
25440;DHT22;13365;52.208;5.488;2023-07-16T12:36:22;27.00;72.40
25440;DHT22;13365;52.208;5.488;2023-07-16T12:38:47;27.00;70.50
25440;DHT22;13365;52.208;5.488;2023-07-16T12:41:13;27.10;71.70
25440;DHT22;13365;52.208;5.488;2023-07-16T12:43:40;27.20;69.70
25440;DHT22;13365;52.208;5.488;2023-07-16T12:46:05;27.40;69.80
25440;DHT22;13365;52.208;5.488;2023-07-16T12:48:31;27.40;69.40
25440;DHT22;13365;52.208;5.488;2023-07-16T12:50:57;27.40;70.30
25440;DHT22;13365;52.208;5.488;2023-07-16T12:53:23;27.30;67.70
25440;DHT22;13365;52.208;5.488;2023-07-16T12:55:49;27.40;70.80
25440;DHT22;13365;52.208;5.488;2023-07-16T12:58:15;27.50;69.10
25440;DHT22;13365;52.208;5.488;2023-07-16T13:00:40;27.70;68.10
25440;DHT22;13365;52.208;5.488;2023-07-16T13:03:06;27.90;69.40
25440;DHT22;13365;52.208;5.488;2023-07-16T13:05:33;27.60;67.90
25440;DHT22;13365;52.208;5.488;2023-07-16T13:07:59;27.10;69.30
25440;DHT22;13365;52.208;5.488;2023-07-16T13:10:24;27.00;70.80
25440;DHT22;13365;52.208;5.488;2023-07-16T13:12:50;26.90;70.20
25440;DHT22;13365;52.208;5.488;2023-07-16T13:15:16;26.70;68.30
25440;DHT22;13365;52.208;5.488;2023-07-16T13:17:41;26.60;70.40
25440;DHT22;13365;52.208;5.488;2023-07-16T13:20:07;26.60;71.30
25440;DHT22;13365;52.208;5.488;2023-07-16T13:22:33;26.70;68.70
25440;DHT22;13365;52.208;5.488;2023-07-16T13:24:58;26.80;68.70
25440;DHT22;13365;52.208;5.488;2023-07-16T13:27:24;26.90;66.30
25440;DHT22;13365;52.208;5.488;2023-07-16T13:29:50;26.90;68.70
25440;DHT22;13365;52.208;5.488;2023-07-16T13:32:16;26.80;70.10
25440;DHT22;13365;52.208;5.488;2023-07-16T13:34:42;26.70;70.60
25440;DHT22;13365;52.208;5.488;2023-07-16T13:37:09;26.70;68.90
25440;DHT22;13365;52.208;5.488;2023-07-16T13:39:35;26.80;67.80
25440;DHT22;13365;52.208;5.488;2023-07-16T13:42:00;26.70;68.20
25440;DHT22;13365;52.208;5.488;2023-07-16T13:44:26;26.80;68.90
25440;DHT22;13365;52.208;5.488;2023-07-16T13:46:51;26.70;67.60
25440;DHT22;13365;52.208;5.488;2023-07-16T13:49:17;26.60;67.40
25440;DHT22;13365;52.208;5.488;2023-07-16T13:51:42;26.50;68.10
25440;DHT22;13365;52.208;5.488;2023-07-16T13:54:11;26.50;68.90
25440;DHT22;13365;52.208;5.488;2023-07-16T13:56:37;26.60;69.50
25440;DHT22;13365;52.208;5.488;2023-07-16T13:59:02;26.60;70.00
25440;DHT22;13365;52.208;5.488;2023-07-16T14:01:29;26.70;69.40
25440;DHT22;13365;52.208;5.488;2023-07-16T14:03:55;26.70;69.30
25440;DHT22;13365;52.208;5.488;2023-07-16T14:06:21;26.60;68.80
25440;DHT22;13365;52.208;5.488;2023-07-16T14:08:46;26.60;69.70
25440;DHT22;13365;52.208;5.488;2023-07-16T14:11:12;26.50;69.00
25440;DHT22;13365;52.208;5.488;2023-07-16T14:13:37;26.40;68.60
25440;DHT22;13365;52.208;5.488;2023-07-16T14:16:03;26.30;70.10
25440;DHT22;13365;52.208;5.488;2023-07-16T14:18:29;26.20;68.80
25440;DHT22;13365;52.208;5.488;2023-07-16T14:20:54;26.10;70.70
25440;DHT22;13365;52.208;5.488;2023-07-16T14:23:20;26.10;70.40
25440;DHT22;13365;52.208;5.488;2023-07-16T14:25:45;26.30;67.70
25440;DHT22;13365;52.208;5.488;2023-07-16T14:28:11;26.40;67.10
25440;DHT22;13365;52.208;5.488;2023-07-16T14:30:36;26.50;65.70
25440;DHT22;13365;52.208;5.488;2023-07-16T14:33:02;26.40;67.10
25440;DHT22;13365;52.208;5.488;2023-07-16T14:35:29;26.40;68.60
25440;DHT22;13365;52.208;5.488;2023-07-16T14:37:55;26.40;68.10
25440;DHT22;13365;52.208;5.488;2023-07-16T14:40:21;26.30;68.30
25440;DHT22;13365;52.208;5.488;2023-07-16T14:42:46;26.30;68.20
25440;DHT22;13365;52.208;5.488;2023-07-16T14:45:12;26.20;68.10
25440;DHT22;13365;52.208;5.488;2023-07-16T14:47:40;26.10;68.00
25440;DHT22;13365;52.208;5.488;2023-07-16T14:50:06;26.20;68.80
25440;DHT22;13365;52.208;5.488;2023-07-16T14:52:31;26.30;68.40
25440;DHT22;13365;52.208;5.488;2023-07-16T14:54:57;26.60;69.40
25440;DHT22;13365;52.208;5.488;2023-07-16T14:57:22;26.60;71.30
25440;DHT22;13365;52.208;5.488;2023-07-16T14:59:48;26.60;68.90
25440;DHT22;13365;52.208;5.488;2023-07-16T15:02:13;26.60;69.50
25440;DHT22;13365;52.208;5.488;2023-07-16T15:04:39;26.60;68.80
25440;DHT22;13365;52.208;5.488;2023-07-16T15:07:05;26.60;69.50
25440;DHT22;13365;52.208;5.488;2023-07-16T15:09:30;26.60;68.90
25440;DHT22;13365;52.208;5.488;2023-07-16T15:11:56;26.60;65.80
25440;DHT22;13365;52.208;5.488;2023-07-16T15:14:22;27.00;68.20
25440;DHT22;13365;52.208;5.488;2023-07-16T15:16:47;27.20;68.10
25440;DHT22;13365;52.208;5.488;2023-07-16T15:19:13;27.20;68.10
25440;DHT22;13365;52.208;5.488;2023-07-16T15:21:38;27.20;67.60
25440;DHT22;13365;52.208;5.488;2023-07-16T15:24:05;27.30;67.80
25440;DHT22;13365;52.208;5.488;2023-07-16T15:26:31;27.40;66.80
25440;DHT22;13365;52.208;5.488;2023-07-16T15:28:57;27.40;67.10
25440;DHT22;13365;52.208;5.488;2023-07-16T15:31:23;27.50;66.30
25440;DHT22;13365;52.208;5.488;2023-07-16T15:33:54;27.20;64.70
25440;DHT22;13365;52.208;5.488;2023-07-16T15:36:20;27.10;64.20
25440;DHT22;13365;52.208;5.488;2023-07-16T15:38:46;26.80;66.30